sensor_id;sensor_type;location;lat;lon;timestamp;temperature;humidity
11778;DHT22;5946;51.770;8.548;2022-09-16T00:00:19;12.20;99.90
11778;DHT22;5946;51.770;8.548;2022-09-16T00:02:45;12.20;99.90
11778;DHT22;5946;51.770;8.548;2022-09-16T00:12:30;12.10;99.90
11778;DHT22;5946;51.770;8.548;2022-09-16T00:14:56;12.10;99.90
11778;DHT22;5946;51.770;8.548;2022-09-16T00:17:22;12.10;99.90
11778;DHT22;5946;51.770;8.548;2022-09-16T00:19:48;12.10;99.90
11778;DHT22;5946;51.770;8.548;2022-09-16T00:22:16;12.10;99.90
11778;DHT22;5946;51.770;8.548;2022-09-16T00:24:42;12.10;99.90
11778;DHT22;5946;51.770;8.548;2022-09-16T00:27:07;12.10;99.90
11778;DHT22;5946;51.770;8.548;2022-09-16T00:29:33;12.10;99.90
11778;DHT22;5946;51.770;8.548;2022-09-16T00:34:24;12.00;99.90
11778;DHT22;5946;51.770;8.548;2022-09-16T00:36:50;12.10;99.90
11778;DHT22;5946;51.770;8.548;2022-09-16T00:39:16;12.10;99.90
11778;DHT22;5946;51.770;8.548;2022-09-16T00:41:41;12.10;99.90
11778;DHT22;5946;51.770;8.548;2022-09-16T00:51:54;11.90;99.90
11778;DHT22;5946;51.770;8.548;2022-09-16T00:54:21;12.00;99.90
11778;DHT22;5946;51.770;8.548;2022-09-16T00:56:51;12.00;99.90
11778;DHT22;5946;51.770;8.548;2022-09-16T01:01:46;12.00;99.90
11778;DHT22;5946;51.770;8.548;2022-09-16T02:03:34;11.70;99.90
11778;DHT22;5946;51.770;8.548;2022-09-16T02:06:10;11.70;99.90
11778;DHT22;5946;51.770;8.548;2022-09-16T02:11:09;11.70;99.90
11778;DHT22;5946;51.770;8.548;2022-09-16T02:35:55;11.60;99.90
11778;DHT22;5946;51.770;8.548;2022-09-16T02:38:39;11.90;99.90
11778;DHT22;5946;51.770;8.548;2022-09-16T02:58:39;11.70;99.90
11778;DHT22;5946;51.770;8.548;2022-09-16T03:01:05;11.90;99.90
11778;DHT22;5946;51.770;8.548;2022-09-16T03:28:46;11.20;99.90
11778;DHT22;5946;51.770;8.548;2022-09-16T03:31:25;11.30;99.90
11778;DHT22;5946;51.770;8.548;2022-09-16T03:33:59;11.20;99.90
11778;DHT22;5946;51.770;8.548;2022-09-16T03:36:31;11.20;99.90
11778;DHT22;5946;51.770;8.548;2022-09-16T03:38:59;11.20;99.90
11778;DHT22;5946;51.770;8.548;2022-09-16T03:41:28;11.10;99.90
11778;DHT22;5946;51.770;8.548;2022-09-16T03:43:55;11.10;99.90
11778;DHT22;5946;51.770;8.548;2022-09-16T03:46:21;11.10;99.90
11778;DHT22;5946;51.770;8.548;2022-09-16T03:48:47;11.00;99.90
11778;DHT22;5946;51.770;8.548;2022-09-16T03:51:13;11.00;99.90
11778;DHT22;5946;51.770;8.548;2022-09-16T03:53:39;10.90;99.90
11778;DHT22;5946;51.770;8.548;2022-09-16T03:56:05;10.90;99.90
11778;DHT22;5946;51.770;8.548;2022-09-16T03:58:30;10.90;99.90
11778;DHT22;5946;51.770;8.548;2022-09-16T04:00:56;10.90;99.90
11778;DHT22;5946;51.770;8.548;2022-09-16T04:03:21;11.00;99.90
11778;DHT22;5946;51.770;8.548;2022-09-16T07:28:37;12.60;99.90
11778;DHT22;5946;51.770;8.548;2022-09-16T07:31:07;12.80;99.90
11778;DHT22;5946;51.770;8.548;2022-09-16T07:33:41;13.10;99.90
11778;DHT22;5946;51.770;8.548;2022-09-16T07:36:09;13.20;99.90
11778;DHT22;5946;51.770;8.548;2022-09-16T21:14:46;10.10;99.90
11778;DHT22;5946;51.770;8.548;2022-09-16T21:17:11;10.10;99.90
11778;DHT22;5946;51.770;8.548;2022-09-16T21:19:37;10.10;99.90
11778;DHT22;5946;51.770;8.548;2022-09-16T21:22:03;10.10;99.90
11778;DHT22;5946;51.770;8.548;2022-09-16T21:24:28;10.10;99.90
11778;DHT22;5946;51.770;8.548;2022-09-16T21:26:54;10.00;99.90
11778;DHT22;5946;51.770;8.548;2022-09-16T21:29:20;10.10;99.90
11778;DHT22;5946;51.770;8.548;2022-09-16T21:31:46;10.00;99.90
11778;DHT22;5946;51.770;8.548;2022-09-16T21:34:19;10.00;99.90
11778;DHT22;5946;51.770;8.548;2022-09-16T21:36:46;10.10;99.90
11778;DHT22;5946;51.770;8.548;2022-09-16T21:39:13;10.00;99.90
11778;DHT22;5946;51.770;8.548;2022-09-16T21:41:39;10.00;99.90
11778;DHT22;5946;51.770;8.548;2022-09-16T21:49:04;10.00;99.90
